sensor_id;sensor_type;location;lat;lon;timestamp;temperature;humidity
69715;HTU21D;56981;53.532;49.398;2024-02-04T00:02:00;-6.73;81.56
69715;HTU21D;56981;53.532;49.398;2024-02-04T00:04:26;-6.65;81.77
69715;HTU21D;56981;53.532;49.398;2024-02-04T00:06:53;-6.65;81.48
69715;HTU21D;56981;53.532;49.398;2024-02-04T00:09:18;-6.60;81.55
69715;HTU21D;56981;53.532;49.398;2024-02-04T00:11:44;-6.60;81.55
69715;HTU21D;56981;53.532;49.398;2024-02-04T00:14:10;-6.61;81.62
69715;HTU21D;56981;53.532;49.398;2024-02-04T00:16:36;-6.59;81.79
69715;HTU21D;56981;53.532;49.398;2024-02-04T00:19:02;-6.58;81.62
69715;HTU21D;56981;53.532;49.398;2024-02-04T00:21:28;-6.59;81.71
69715;HTU21D;56981;53.532;49.398;2024-02-04T00:23:54;-6.53;81.66
69715;HTU21D;56981;53.532;49.398;2024-02-04T00:26:20;-6.52;81.45
69715;HTU21D;56981;53.532;49.398;2024-02-04T00:28:46;-6.51;81.52
69715;HTU21D;56981;53.532;49.398;2024-02-04T00:31:12;-6.49;81.68
69715;HTU21D;56981;53.532;49.398;2024-02-04T00:33:38;-6.55;82.04
69715;HTU21D;56981;53.532;49.398;2024-02-04T00:36:04;-6.47;81.73
69715;HTU21D;56981;53.532;49.398;2024-02-04T00:38:30;-6.45;81.51
69715;HTU21D;56981;53.532;49.398;2024-02-04T00:40:56;-6.47;81.68
69715;HTU21D;56981;53.532;49.398;2024-02-04T00:43:22;-6.48;82.11
69715;HTU21D;56981;53.532;49.398;2024-02-04T00:45:48;-6.51;82.36
69715;HTU21D;56981;53.532;49.398;2024-02-04T00:48:14;-6.44;82.21
69715;HTU21D;56981;53.532;49.398;2024-02-04T00:50:41;-6.43;82.21
69715;HTU21D;56981;53.532;49.398;2024-02-04T00:53:07;-6.43;82.36
69715;HTU21D;56981;53.532;49.398;2024-02-04T00:55:33;-6.42;82.44
69715;HTU21D;56981;53.532;49.398;2024-02-04T00:57:59;-6.37;82.41
69715;HTU21D;56981;53.532;49.398;2024-02-04T01:00:27;-6.31;82.50
69715;HTU21D;56981;53.532;49.398;2024-02-04T01:02:53;-6.21;82.12
69715;HTU21D;56981;53.532;49.398;2024-02-04T01:05:19;-6.19;82.24
69715;HTU21D;56981;53.532;49.398;2024-02-04T01:07:45;-6.14;82.30
69715;HTU21D;56981;53.532;49.398;2024-02-04T01:10:11;-6.09;81.91
69715;HTU21D;56981;53.532;49.398;2024-02-04T01:12:37;-6.07;81.60
69715;HTU21D;56981;53.532;49.398;2024-02-04T01:15:03;-6.07;81.49
69715;HTU21D;56981;53.532;49.398;2024-02-04T01:17:31;-6.12;81.57
69715;HTU21D;56981;53.532;49.398;2024-02-04T01:19:57;-6.00;81.62
69715;HTU21D;56981;53.532;49.398;2024-02-04T01:22:23;-6.01;81.31
69715;HTU21D;56981;53.532;49.398;2024-02-04T01:24:52;-6.02;80.90
69715;HTU21D;56981;53.532;49.398;2024-02-04T01:27:18;-6.00;81.40
69715;HTU21D;56981;53.532;49.398;2024-02-04T01:29:44;-5.89;80.75
69715;HTU21D;56981;53.532;49.398;2024-02-04T01:32:10;-5.89;81.06
69715;HTU21D;56981;53.532;49.398;2024-02-04T01:34:36;-5.87;80.63
69715;HTU21D;56981;53.532;49.398;2024-02-04T01:37:02;-5.84;80.59
69715;HTU21D;56981;53.532;49.398;2024-02-04T01:39:29;-5.83;80.73
69715;HTU21D;56981;53.532;49.398;2024-02-04T01:41:55;-5.82;80.44
69715;HTU21D;56981;53.532;49.398;2024-02-04T01:44:21;-5.73;80.05
69715;HTU21D;56981;53.532;49.398;2024-02-04T01:46:49;-5.69;79.74
69715;HTU21D;56981;53.532;49.398;2024-02-04T01:49:15;-5.70;79.63
69715;HTU21D;56981;53.532;49.398;2024-02-04T01:51:42;-5.68;79.56
69715;HTU21D;56981;53.532;49.398;2024-02-04T01:54:08;-5.67;79.84
69715;HTU21D;56981;53.532;49.398;2024-02-04T01:56:34;-5.62;80.14
69715;HTU21D;56981;53.532;49.398;2024-02-04T01:59:01;-5.60;79.82
69715;HTU21D;56981;53.532;49.398;2024-02-04T02:01:27;-5.59;80.18
69715;HTU21D;56981;53.532;49.398;2024-02-04T02:03:53;-5.59;80.02
69715;HTU21D;56981;53.532;49.398;2024-02-04T02:06:20;-5.54;80.12
69715;HTU21D;56981;53.532;49.398;2024-02-04T02:08:46;-5.46;80.26
69715;HTU21D;56981;53.532;49.398;2024-02-04T02:11:20;-5.44;80.37
69715;HTU21D;56981;53.532;49.398;2024-02-04T02:13:51;-5.40;80.33
69715;HTU21D;56981;53.532;49.398;2024-02-04T02:16:18;-5.39;80.39
69715;HTU21D;56981;53.532;49.398;2024-02-04T02:19:00;-5.27;80.32
69715;HTU21D;56981;53.532;49.398;2024-02-04T02:26:50;-5.20;80.60
69715;HTU21D;56981;53.532;49.398;2024-02-04T02:29:17;-5.16;80.43
69715;HTU21D;56981;53.532;49.398;2024-02-04T02:31:43;-5.13;80.48
69715;HTU21D;56981;53.532;49.398;2024-02-04T02:34:10;-5.13;80.18
69715;HTU21D;56981;53.532;49.398;2024-02-04T02:36:52;-5.08;79.68
69715;HTU21D;56981;53.532;49.398;2024-02-04T02:39:31;-5.03;79.70
69715;HTU21D;56981;53.532;49.398;2024-02-04T02:42:00;-5.01;79.36
69715;HTU21D;56981;53.532;49.398;2024-02-04T02:44:28;-5.04;80.13
69715;HTU21D;56981;53.532;49.398;2024-02-04T02:46:58;-5.03;79.90
69715;HTU21D;56981;53.532;49.398;2024-02-04T02:49:26;-5.08;80.21
69715;HTU21D;56981;53.532;49.398;2024-02-04T02:51:53;-5.03;80.04
69715;HTU21D;56981;53.532;49.398;2024-02-04T02:54:19;-4.96;79.82
69715;HTU21D;56981;53.532;49.398;2024-02-04T02:56:45;-4.96;80.09
69715;HTU21D;56981;53.532;49.398;2024-02-04T02:59:11;-4.98;80.01
69715;HTU21D;56981;53.532;49.398;2024-02-04T03:01:39;-4.94;80.39
69715;HTU21D;56981;53.532;49.398;2024-02-04T03:04:06;-4.85;80.47
69715;HTU21D;56981;53.532;49.398;2024-02-04T03:06:32;-4.83;80.17
69715;HTU21D;56981;53.532;49.398;2024-02-04T03:08:58;-4.82;80.42
69715;HTU21D;56981;53.532;49.398;2024-02-04T03:11:24;-4.78;80.75
69715;HTU21D;56981;53.532;49.398;2024-02-04T03:13:50;-4.76;80.82
69715;HTU21D;56981;53.532;49.398;2024-02-04T03:16:17;-4.69;81.84
69715;HTU21D;56981;53.532;49.398;2024-02-04T03:18:43;-4.63;81.27
69715;HTU21D;56981;53.532;49.398;2024-02-04T03:21:16;-4.63;81.59
69715;HTU21D;56981;53.532;49.398;2024-02-04T03:23:43;-4.59;81.84
69715;HTU21D;56981;53.532;49.398;2024-02-04T03:26:10;-4.68;82.38
69715;HTU21D;56981;53.532;49.398;2024-02-04T03:28:36;-4.71;83.26
69715;HTU21D;56981;53.532;49.398;2024-02-04T03:31:02;-4.60;83.00
69715;HTU21D;56981;53.532;49.398;2024-02-04T03:33:29;-4.60;83.20
69715;HTU21D;56981;53.532;49.398;2024-02-04T03:35:55;-4.65;83.79
69715;HTU21D;56981;53.532;49.398;2024-02-04T03:38:21;-4.61;84.10
69715;HTU21D;56981;53.532;49.398;2024-02-04T03:40:48;-4.65;83.93
69715;HTU21D;56981;53.532;49.398;2024-02-04T03:43:15;-4.66;84.16
69715;HTU21D;56981;53.532;49.398;2024-02-04T03:45:41;-4.68;84.21
69715;HTU21D;56981;53.532;49.398;2024-02-04T03:48:07;-4.64;84.45
69715;HTU21D;56981;53.532;49.398;2024-02-04T03:50:35;-4.60;84.42
69715;HTU21D;56981;53.532;49.398;2024-02-04T03:53:01;-4.68;84.64
69715;HTU21D;56981;53.532;49.398;2024-02-04T03:55:28;-4.61;84.79
69715;HTU21D;56981;53.532;49.398;2024-02-04T03:57:54;-4.59;84.66
69715;HTU21D;56981;53.532;49.398;2024-02-04T04:00:22;-4.59;83.84
69715;HTU21D;56981;53.532;49.398;2024-02-04T04:02:49;-4.55;84.11
69715;HTU21D;56981;53.532;49.398;2024-02-04T04:05:15;-4.52;83.54
69715;HTU21D;56981;53.532;49.398;2024-02-04T04:07:41;-4.53;83.27
69715;HTU21D;56981;53.532;49.398;2024-02-04T04:10:07;-4.54;83.85
69715;HTU21D;56981;53.532;49.398;2024-02-04T04:12:33;-4.44;83.53
69715;HTU21D;56981;53.532;49.398;2024-02-04T04:14:59;-4.38;83.33
69715;HTU21D;56981;53.532;49.398;2024-02-04T04:17:25;-4.29;83.23
69715;HTU21D;56981;53.532;49.398;2024-02-04T04:19:51;-4.28;82.88
69715;HTU21D;56981;53.532;49.398;2024-02-04T04:22:18;-4.23;82.38
69715;HTU21D;56981;53.532;49.398;2024-02-04T04:24:44;-4.22;82.29
69715;HTU21D;56981;53.532;49.398;2024-02-04T04:27:10;-4.24;82.69
69715;HTU21D;56981;53.532;49.398;2024-02-04T04:29:36;-4.23;82.10
69715;HTU21D;56981;53.532;49.398;2024-02-04T04:32:02;-4.16;82.29
69715;HTU21D;56981;53.532;49.398;2024-02-04T04:34:28;-4.23;82.19
69715;HTU21D;56981;53.532;49.398;2024-02-04T04:36:54;-4.23;82.12
69715;HTU21D;56981;53.532;49.398;2024-02-04T04:39:20;-4.23;81.79
69715;HTU21D;56981;53.532;49.398;2024-02-04T04:41:46;-4.31;82.07
69715;HTU21D;56981;53.532;49.398;2024-02-04T04:44:12;-4.36;81.64
69715;HTU21D;56981;53.532;49.398;2024-02-04T04:46:39;-4.39;82.05
69715;HTU21D;56981;53.532;49.398;2024-02-04T04:49:08;-4.35;81.35
69715;HTU21D;56981;53.532;49.398;2024-02-04T04:51:35;-4.39;81.15
69715;HTU21D;56981;53.532;49.398;2024-02-04T04:54:02;-4.37;81.41
69715;HTU21D;56981;53.532;49.398;2024-02-04T04:56:28;-4.32;81.01
69715;HTU21D;56981;53.532;49.398;2024-02-04T04:58:54;-4.26;80.65
69715;HTU21D;56981;53.532;49.398;2024-02-04T05:01:20;-4.23;80.28
69715;HTU21D;56981;53.532;49.398;2024-02-04T05:03:46;-4.14;80.46
69715;HTU21D;56981;53.532;49.398;2024-02-04T05:06:13;-4.08;80.19
69715;HTU21D;56981;53.532;49.398;2024-02-04T05:08:39;-4.00;80.28
69715;HTU21D;56981;53.532;49.398;2024-02-04T05:11:08;-3.99;80.74
69715;HTU21D;56981;53.532;49.398;2024-02-04T05:13:34;-3.94;80.81
69715;HTU21D;56981;53.532;49.398;2024-02-04T05:16:00;-3.92;80.59
69715;HTU21D;56981;53.532;49.398;2024-02-04T05:18:26;-3.85;81.14
69715;HTU21D;56981;53.532;49.398;2024-02-04T05:20:52;-3.72;81.08
69715;HTU21D;56981;53.532;49.398;2024-02-04T05:23:19;-3.67;80.56
69715;HTU21D;56981;53.532;49.398;2024-02-04T05:25:45;-3.51;80.09
69715;HTU21D;56981;53.532;49.398;2024-02-04T05:28:11;-3.48;79.72
69715;HTU21D;56981;53.532;49.398;2024-02-04T05:30:37;-3.50;79.95
69715;HTU21D;56981;53.532;49.398;2024-02-04T05:33:03;-3.52;80.25
69715;HTU21D;56981;53.532;49.398;2024-02-04T05:35:29;-3.45;80.17
69715;HTU21D;56981;53.532;49.398;2024-02-04T05:37:55;-3.34;80.05
69715;HTU21D;56981;53.532;49.398;2024-02-04T05:40:22;-3.38;80.11
69715;HTU21D;56981;53.532;49.398;2024-02-04T05:42:48;-3.33;79.71
69715;HTU21D;56981;53.532;49.398;2024-02-04T05:45:14;-3.24;79.56
69715;HTU21D;56981;53.532;49.398;2024-02-04T05:47:40;-3.12;78.63
69715;HTU21D;56981;53.532;49.398;2024-02-04T05:50:07;-3.03;78.34
69715;HTU21D;56981;53.532;49.398;2024-02-04T05:52:33;-2.91;77.87
69715;HTU21D;56981;53.532;49.398;2024-02-04T05:54:59;-2.82;77.03
69715;HTU21D;56981;53.532;49.398;2024-02-04T05:57:25;-2.80;77.17
69715;HTU21D;56981;53.532;49.398;2024-02-04T05:59:52;-2.76;76.78
69715;HTU21D;56981;53.532;49.398;2024-02-04T06:02:18;-2.82;77.72
69715;HTU21D;56981;53.532;49.398;2024-02-04T06:04:44;-2.88;77.92
69715;HTU21D;56981;53.532;49.398;2024-02-04T06:07:11;-2.81;77.84
69715;HTU21D;56981;53.532;49.398;2024-02-04T06:09:37;-2.87;78.01
69715;HTU21D;56981;53.532;49.398;2024-02-04T06:12:03;-2.91;78.04
69715;HTU21D;56981;53.532;49.398;2024-02-04T06:14:33;-2.83;78.09
69715;HTU21D;56981;53.532;49.398;2024-02-04T06:17:00;-2.72;78.14
69715;HTU21D;56981;53.532;49.398;2024-02-04T06:19:26;-2.75;77.83
69715;HTU21D;56981;53.532;49.398;2024-02-04T06:21:52;-2.79;78.40
69715;HTU21D;56981;53.532;49.398;2024-02-04T06:24:18;-2.78;78.53
69715;HTU21D;56981;53.532;49.398;2024-02-04T06:26:46;-2.71;78.17
69715;HTU21D;56981;53.532;49.398;2024-02-04T06:29:12;-2.71;78.35
69715;HTU21D;56981;53.532;49.398;2024-02-04T06:31:38;-2.64;77.96
69715;HTU21D;56981;53.532;49.398;2024-02-04T06:34:04;-2.60;77.56
69715;HTU21D;56981;53.532;49.398;2024-02-04T06:36:30;-2.51;77.87
69715;HTU21D;56981;53.532;49.398;2024-02-04T06:38:56;-2.44;77.29
69715;HTU21D;56981;53.532;49.398;2024-02-04T06:41:22;-2.34;77.05
69715;HTU21D;56981;53.532;49.398;2024-02-04T06:43:48;-2.15;76.52
69715;HTU21D;56981;53.532;49.398;2024-02-04T06:46:24;-2.18;76.57
69715;HTU21D;56981;53.532;49.398;2024-02-04T06:48:50;-2.10;76.34
69715;HTU21D;56981;53.532;49.398;2024-02-04T06:51:16;-2.09;76.35
69715;HTU21D;56981;53.532;49.398;2024-02-04T06:53:42;-1.87;76.22
69715;HTU21D;56981;53.532;49.398;2024-02-04T06:56:08;-1.74;75.88
69715;HTU21D;56981;53.532;49.398;2024-02-04T06:58:37;-1.84;76.28
69715;HTU21D;56981;53.532;49.398;2024-02-04T07:01:03;-1.75;75.98
69715;HTU21D;56981;53.532;49.398;2024-02-04T07:03:30;-1.73;75.52
69715;HTU21D;56981;53.532;49.398;2024-02-04T07:06:00;-1.68;75.73
69715;HTU21D;56981;53.532;49.398;2024-02-04T07:08:26;-1.62;75.14
69715;HTU21D;56981;53.532;49.398;2024-02-04T07:10:53;-1.64;74.97
69715;HTU21D;56981;53.532;49.398;2024-02-04T07:13:19;-1.74;75.60
69715;HTU21D;56981;53.532;49.398;2024-02-04T07:15:45;-1.68;75.78
69715;HTU21D;56981;53.532;49.398;2024-02-04T07:18:11;-1.59;76.01
69715;HTU21D;56981;53.532;49.398;2024-02-04T07:20:37;-1.56;75.41
69715;HTU21D;56981;53.532;49.398;2024-02-04T07:23:04;-1.61;75.97
69715;HTU21D;56981;53.532;49.398;2024-02-04T07:25:30;-1.57;75.73
69715;HTU21D;56981;53.532;49.398;2024-02-04T07:27:57;-1.67;75.73
69715;HTU21D;56981;53.532;49.398;2024-02-04T07:30:24;-1.60;75.81
69715;HTU21D;56981;53.532;49.398;2024-02-04T07:32:50;-1.50;75.56
69715;HTU21D;56981;53.532;49.398;2024-02-04T07:35:19;-1.24;74.27
69715;HTU21D;56981;53.532;49.398;2024-02-04T07:37:45;-1.31;75.05
69715;HTU21D;56981;53.532;49.398;2024-02-04T07:40:12;-1.33;75.25
69715;HTU21D;56981;53.532;49.398;2024-02-04T07:42:38;-1.11;74.92
69715;HTU21D;56981;53.532;49.398;2024-02-04T07:45:04;-1.02;74.16
69715;HTU21D;56981;53.532;49.398;2024-02-04T07:47:35;-0.81;73.38
69715;HTU21D;56981;53.532;49.398;2024-02-04T07:50:01;-0.60;71.87
69715;HTU21D;56981;53.532;49.398;2024-02-04T07:52:28;-0.65;72.91
69715;HTU21D;56981;53.532;49.398;2024-02-04T07:54:55;-0.77;72.66
69715;HTU21D;56981;53.532;49.398;2024-02-04T07:57:21;-0.62;73.02
69715;HTU21D;56981;53.532;49.398;2024-02-04T07:59:47;-0.54;72.60
69715;HTU21D;56981;53.532;49.398;2024-02-04T08:02:13;-0.49;72.62
69715;HTU21D;56981;53.532;49.398;2024-02-04T08:04:42;-0.35;71.83
69715;HTU21D;56981;53.532;49.398;2024-02-04T08:07:08;-0.57;72.45
69715;HTU21D;56981;53.532;49.398;2024-02-04T08:09:34;-0.65;73.29
69715;HTU21D;56981;53.532;49.398;2024-02-04T08:12:00;-0.58;73.72
69715;HTU21D;56981;53.532;49.398;2024-02-04T08:14:26;-0.56;73.42
69715;HTU21D;56981;53.532;49.398;2024-02-04T08:16:52;-0.44;72.83
69715;HTU21D;56981;53.532;49.398;2024-02-04T08:19:18;-0.42;72.96
69715;HTU21D;56981;53.532;49.398;2024-02-04T08:21:44;-0.24;72.58
69715;HTU21D;56981;53.532;49.398;2024-02-04T08:24:10;-0.01;71.02
69715;HTU21D;56981;53.532;49.398;2024-02-04T08:26:36;0.09;71.56
69715;HTU21D;56981;53.532;49.398;2024-02-04T08:29:02;0.19;70.47
69715;HTU21D;56981;53.532;49.398;2024-02-04T08:31:31;0.37;69.96
69715;HTU21D;56981;53.532;49.398;2024-02-04T08:33:57;0.33;70.49
69715;HTU21D;56981;53.532;49.398;2024-02-04T08:36:23;0.27;70.35
69715;HTU21D;56981;53.532;49.398;2024-02-04T08:38:49;0.30;70.49
69715;HTU21D;56981;53.532;49.398;2024-02-04T08:41:15;0.29;70.23
69715;HTU21D;56981;53.532;49.398;2024-02-04T08:43:41;0.53;69.74
69715;HTU21D;56981;53.532;49.398;2024-02-04T08:46:07;0.53;70.36
69715;HTU21D;56981;53.532;49.398;2024-02-04T08:48:33;0.58;70.26
69715;HTU21D;56981;53.532;49.398;2024-02-04T08:51:00;0.54;69.90
69715;HTU21D;56981;53.532;49.398;2024-02-04T08:53:26;0.77;69.54
69715;HTU21D;56981;53.532;49.398;2024-02-04T08:55:52;0.63;70.03
69715;HTU21D;56981;53.532;49.398;2024-02-04T08:58:18;0.40;71.48
69715;HTU21D;56981;53.532;49.398;2024-02-04T09:00:44;0.49;70.93
69715;HTU21D;56981;53.532;49.398;2024-02-04T09:03:10;0.14;71.66
69715;HTU21D;56981;53.532;49.398;2024-02-04T09:05:36;0.06;73.32
69715;HTU21D;56981;53.532;49.398;2024-02-04T09:08:02;0.18;72.54
69715;HTU21D;56981;53.532;49.398;2024-02-04T09:10:28;0.36;72.32
69715;HTU21D;56981;53.532;49.398;2024-02-04T09:12:54;0.54;71.77
69715;HTU21D;56981;53.532;49.398;2024-02-04T09:15:23;0.53;71.84
69715;HTU21D;56981;53.532;49.398;2024-02-04T09:17:49;0.67;71.09
69715;HTU21D;56981;53.532;49.398;2024-02-04T09:20:15;0.68;70.66
69715;HTU21D;56981;53.532;49.398;2024-02-04T09:22:41;0.65;70.73
69715;HTU21D;56981;53.532;49.398;2024-02-04T09:25:07;0.58;71.40
69715;HTU21D;56981;53.532;49.398;2024-02-04T09:27:33;0.62;71.00
69715;HTU21D;56981;53.532;49.398;2024-02-04T09:30:00;0.35;71.64
69715;HTU21D;56981;53.532;49.398;2024-02-04T09:32:26;0.18;72.99
69715;HTU21D;56981;53.532;49.398;2024-02-04T09:34:52;0.21;72.49
69715;HTU21D;56981;53.532;49.398;2024-02-04T09:37:18;0.18;72.96
69715;HTU21D;56981;53.532;49.398;2024-02-04T09:39:44;0.38;72.47
69715;HTU21D;56981;53.532;49.398;2024-02-04T09:42:19;0.40;72.36
69715;HTU21D;56981;53.532;49.398;2024-02-04T09:44:47;0.19;73.38
69715;HTU21D;56981;53.532;49.398;2024-02-04T09:47:14;0.06;73.82
69715;HTU21D;56981;53.532;49.398;2024-02-04T09:49:40;-0.01;74.63
69715;HTU21D;56981;53.532;49.398;2024-02-04T09:52:08;-0.09;75.20
69715;HTU21D;56981;53.532;49.398;2024-02-04T09:54:40;-0.08;74.69
69715;HTU21D;56981;53.532;49.398;2024-02-04T09:57:09;-0.31;76.24
69715;HTU21D;56981;53.532;49.398;2024-02-04T09:59:35;-0.41;76.55
69715;HTU21D;56981;53.532;49.398;2024-02-04T10:02:03;-0.50;77.00
69715;HTU21D;56981;53.532;49.398;2024-02-04T10:04:29;-0.60;78.08
69715;HTU21D;56981;53.532;49.398;2024-02-04T10:06:55;-0.56;77.98
69715;HTU21D;56981;53.532;49.398;2024-02-04T10:09:21;-0.57;77.96
69715;HTU21D;56981;53.532;49.398;2024-02-04T10:11:47;-0.62;78.29
69715;HTU21D;56981;53.532;49.398;2024-02-04T10:14:15;-0.65;78.99
69715;HTU21D;56981;53.532;49.398;2024-02-04T10:16:41;-0.64;79.08
69715;HTU21D;56981;53.532;49.398;2024-02-04T10:19:07;-0.70;79.52
69715;HTU21D;56981;53.532;49.398;2024-02-04T10:21:33;-0.66;79.81
69715;HTU21D;56981;53.532;49.398;2024-02-04T10:24:00;-0.61;79.62
69715;HTU21D;56981;53.532;49.398;2024-02-04T10:26:29;-0.58;80.29
69715;HTU21D;56981;53.532;49.398;2024-02-04T10:29:00;-0.54;80.27
69715;HTU21D;56981;53.532;49.398;2024-02-04T10:31:27;-0.39;79.78
69715;HTU21D;56981;53.532;49.398;2024-02-04T10:33:54;-0.43;80.19
69715;HTU21D;56981;53.532;49.398;2024-02-04T10:36:20;-0.39;80.33
69715;HTU21D;56981;53.532;49.398;2024-02-04T10:38:46;-0.34;80.08
69715;HTU21D;56981;53.532;49.398;2024-02-04T10:41:17;-0.36;80.62
69715;HTU21D;56981;53.532;49.398;2024-02-04T10:43:44;-0.34;80.88
69715;HTU21D;56981;53.532;49.398;2024-02-04T10:46:18;-0.35;80.77
69715;HTU21D;56981;53.532;49.398;2024-02-04T10:49:09;-0.27;80.77
69715;HTU21D;56981;53.532;49.398;2024-02-04T10:51:36;-0.34;81.16
69715;HTU21D;56981;53.532;49.398;2024-02-04T10:54:07;-0.31;81.10
69715;HTU21D;56981;53.532;49.398;2024-02-04T10:56:42;-0.37;81.07
69715;HTU21D;56981;53.532;49.398;2024-02-04T10:59:09;-0.39;81.17
69715;HTU21D;56981;53.532;49.398;2024-02-04T11:01:41;-0.36;81.03
69715;HTU21D;56981;53.532;49.398;2024-02-04T11:04:10;-0.34;81.15
69715;HTU21D;56981;53.532;49.398;2024-02-04T11:06:40;-0.30;81.23
69715;HTU21D;56981;53.532;49.398;2024-02-04T11:09:08;-0.16;81.04
69715;HTU21D;56981;53.532;49.398;2024-02-04T11:11:39;-0.25;81.60
69715;HTU21D;56981;53.532;49.398;2024-02-04T11:14:10;-0.24;81.81
69715;HTU21D;56981;53.532;49.398;2024-02-04T11:17:02;-0.19;82.61
69715;HTU21D;56981;53.532;49.398;2024-02-04T11:23:31;-0.14;82.99
69715;HTU21D;56981;53.532;49.398;2024-02-04T11:25:45;-0.12;83.14
69715;HTU21D;56981;53.532;49.398;2024-02-04T11:28:12;-0.17;83.68
69715;HTU21D;56981;53.532;49.398;2024-02-04T11:30:45;-0.15;83.58
69715;HTU21D;56981;53.532;49.398;2024-02-04T11:33:12;-0.12;83.94
69715;HTU21D;56981;53.532;49.398;2024-02-04T11:35:39;-0.08;84.03
69715;HTU21D;56981;53.532;49.398;2024-02-04T11:38:05;-0.08;84.45
69715;HTU21D;56981;53.532;49.398;2024-02-04T11:40:34;0.04;84.58
69715;HTU21D;56981;53.532;49.398;2024-02-04T11:43:10;0.17;83.52
69715;HTU21D;56981;53.532;49.398;2024-02-04T11:45:43;0.21;83.37
69715;HTU21D;56981;53.532;49.398;2024-02-04T11:48:12;0.28;83.28
69715;HTU21D;56981;53.532;49.398;2024-02-04T11:50:39;0.37;82.69
69715;HTU21D;56981;53.532;49.398;2024-02-04T11:53:09;0.19;83.64
69715;HTU21D;56981;53.532;49.398;2024-02-04T11:55:38;0.13;84.01
69715;HTU21D;56981;53.532;49.398;2024-02-04T11:58:08;0.17;84.16
69715;HTU21D;56981;53.532;49.398;2024-02-04T12:00:37;0.17;84.00
69715;HTU21D;56981;53.532;49.398;2024-02-04T12:03:07;0.15;84.12
69715;HTU21D;56981;53.532;49.398;2024-02-04T12:05:37;0.09;84.55
69715;HTU21D;56981;53.532;49.398;2024-02-04T12:08:07;0.03;85.04
69715;HTU21D;56981;53.532;49.398;2024-02-04T12:10:35;0.07;85.05
69715;HTU21D;56981;53.532;49.398;2024-02-04T12:13:05;0.04;85.06
69715;HTU21D;56981;53.532;49.398;2024-02-04T12:15:35;-0.03;86.23
69715;HTU21D;56981;53.532;49.398;2024-02-04T12:18:09;0.06;85.99
69715;HTU21D;56981;53.532;49.398;2024-02-04T12:20:36;0.06;85.93
69715;HTU21D;56981;53.532;49.398;2024-02-04T12:23:04;-0.01;85.82
69715;HTU21D;56981;53.532;49.398;2024-02-04T12:25:31;0.03;86.35
69715;HTU21D;56981;53.532;49.398;2024-02-04T12:27:58;-0.00;86.89
69715;HTU21D;56981;53.532;49.398;2024-02-04T12:30:26;0.07;86.81
69715;HTU21D;56981;53.532;49.398;2024-02-04T12:33:00;0.04;86.99
69715;HTU21D;56981;53.532;49.398;2024-02-04T12:35:27;0.06;86.94
69715;HTU21D;56981;53.532;49.398;2024-02-04T12:37:57;0.07;87.20
69715;HTU21D;56981;53.532;49.398;2024-02-04T12:40:25;0.16;87.06
69715;HTU21D;56981;53.532;49.398;2024-02-04T12:42:54;0.18;86.59
69715;HTU21D;56981;53.532;49.398;2024-02-04T12:45:22;0.16;86.68
69715;HTU21D;56981;53.532;49.398;2024-02-04T12:47:58;0.19;86.93
69715;HTU21D;56981;53.532;49.398;2024-02-04T12:50:24;0.18;86.99
69715;HTU21D;56981;53.532;49.398;2024-02-04T12:53:08;0.21;87.01
69715;HTU21D;56981;53.532;49.398;2024-02-04T12:55:36;0.18;87.58
69715;HTU21D;56981;53.532;49.398;2024-02-04T12:58:05;0.20;87.53
69715;HTU21D;56981;53.532;49.398;2024-02-04T13:00:32;0.17;87.47
69715;HTU21D;56981;53.532;49.398;2024-02-04T13:02:59;0.24;87.37
69715;HTU21D;56981;53.532;49.398;2024-02-04T13:05:25;0.30;86.65
69715;HTU21D;56981;53.532;49.398;2024-02-04T13:07:57;0.28;86.75
69715;HTU21D;56981;53.532;49.398;2024-02-04T13:10:25;0.32;86.66
69715;HTU21D;56981;53.532;49.398;2024-02-04T13:13:01;0.28;86.87
69715;HTU21D;56981;53.532;49.398;2024-02-04T13:15:31;0.29;86.95
69715;HTU21D;56981;53.532;49.398;2024-02-04T13:17:58;0.28;87.38
69715;HTU21D;56981;53.532;49.398;2024-02-04T13:20:25;0.24;87.51
69715;HTU21D;56981;53.532;49.398;2024-02-04T13:22:51;0.28;87.58
69715;HTU21D;56981;53.532;49.398;2024-02-04T13:25:21;0.29;87.56
69715;HTU21D;56981;53.532;49.398;2024-02-04T13:27:50;0.32;87.98
69715;HTU21D;56981;53.532;49.398;2024-02-04T13:30:17;0.30;87.97
69715;HTU21D;56981;53.532;49.398;2024-02-04T13:32:43;0.28;88.44
69715;HTU21D;56981;53.532;49.398;2024-02-04T13:35:09;0.32;88.73
69715;HTU21D;56981;53.532;49.398;2024-02-04T13:37:39;0.29;88.86
69715;HTU21D;56981;53.532;49.398;2024-02-04T13:40:07;0.28;89.07
69715;HTU21D;56981;53.532;49.398;2024-02-04T13:42:35;0.30;89.13
69715;HTU21D;56981;53.532;49.398;2024-02-04T13:45:02;0.34;89.12
69715;HTU21D;56981;53.532;49.398;2024-02-04T13:47:28;0.33;89.07
69715;HTU21D;56981;53.532;49.398;2024-02-04T13:49:55;0.36;89.24
69715;HTU21D;56981;53.532;49.398;2024-02-04T13:52:22;0.39;89.17
69715;HTU21D;56981;53.532;49.398;2024-02-04T13:54:48;0.42;89.34
69715;HTU21D;56981;53.532;49.398;2024-02-04T13:57:17;0.43;89.31
69715;HTU21D;56981;53.532;49.398;2024-02-04T13:59:43;0.43;89.26
69715;HTU21D;56981;53.532;49.398;2024-02-04T14:02:09;0.42;90.06
69715;HTU21D;56981;53.532;49.398;2024-02-04T14:04:35;0.44;89.98
69715;HTU21D;56981;53.532;49.398;2024-02-04T14:07:01;0.46;89.95
69715;HTU21D;56981;53.532;49.398;2024-02-04T14:09:28;0.49;90.07
69715;HTU21D;56981;53.532;49.398;2024-02-04T14:11:54;0.51;90.08
69715;HTU21D;56981;53.532;49.398;2024-02-04T14:14:23;0.51;90.34
69715;HTU21D;56981;53.532;49.398;2024-02-04T14:16:50;0.51;90.21
69715;HTU21D;56981;53.532;49.398;2024-02-04T14:19:16;0.51;90.45
69715;HTU21D;56981;53.532;49.398;2024-02-04T14:21:43;0.52;90.57
69715;HTU21D;56981;53.532;49.398;2024-02-04T14:24:09;0.57;90.52
69715;HTU21D;56981;53.532;49.398;2024-02-04T14:26:35;0.59;90.78
69715;HTU21D;56981;53.532;49.398;2024-02-04T14:29:05;0.60;90.65
69715;HTU21D;56981;53.532;49.398;2024-02-04T14:31:31;0.60;90.73
69715;HTU21D;56981;53.532;49.398;2024-02-04T14:33:57;0.60;91.37
69715;HTU21D;56981;53.532;49.398;2024-02-04T14:36:23;0.60;91.61
69715;HTU21D;56981;53.532;49.398;2024-02-04T14:38:50;0.67;91.16
69715;HTU21D;56981;53.532;49.398;2024-02-04T14:41:16;0.67;91.08
69715;HTU21D;56981;53.532;49.398;2024-02-04T14:43:43;0.66;91.08
69715;HTU21D;56981;53.532;49.398;2024-02-04T14:46:09;0.71;90.84
69715;HTU21D;56981;53.532;49.398;2024-02-04T14:48:36;0.73;90.67
69715;HTU21D;56981;53.532;49.398;2024-02-04T14:51:05;0.76;90.58
69715;HTU21D;56981;53.532;49.398;2024-02-04T14:53:31;0.76;90.75
69715;HTU21D;56981;53.532;49.398;2024-02-04T14:55:57;0.78;90.95
69715;HTU21D;56981;53.532;49.398;2024-02-04T14:58:23;0.82;90.97
69715;HTU21D;56981;53.532;49.398;2024-02-04T15:00:50;0.89;91.08
69715;HTU21D;56981;53.532;49.398;2024-02-04T15:03:16;0.89;91.37
69715;HTU21D;56981;53.532;49.398;2024-02-04T15:05:42;0.94;91.95
69715;HTU21D;56981;53.532;49.398;2024-02-04T15:08:08;0.97;91.72
69715;HTU21D;56981;53.532;49.398;2024-02-04T15:10:34;0.98;91.59
69715;HTU21D;56981;53.532;49.398;2024-02-04T15:13:01;1.04;91.74
69715;HTU21D;56981;53.532;49.398;2024-02-04T15:15:27;1.05;91.42
69715;HTU21D;56981;53.532;49.398;2024-02-04T15:17:54;1.07;91.23